sensor_id;sensor_type;location;lat;lon;timestamp;temperature;humidity
46309;DHT22;32037;50.820;6.494;2023-03-01T00:01:47;5.80;99.90
46309;DHT22;32037;50.820;6.494;2023-03-01T00:04:16;5.80;99.90
46309;DHT22;32037;50.820;6.494;2023-03-01T00:06:46;5.80;99.90
46309;DHT22;32037;50.820;6.494;2023-03-01T00:09:15;5.80;99.90
46309;DHT22;32037;50.820;6.494;2023-03-01T00:11:44;5.80;99.90
46309;DHT22;32037;50.820;6.494;2023-03-01T00:14:12;5.80;99.90
46309;DHT22;32037;50.820;6.494;2023-03-01T00:16:45;5.80;99.90
46309;DHT22;32037;50.820;6.494;2023-03-01T00:19:15;5.80;99.90
46309;DHT22;32037;50.820;6.494;2023-03-01T00:21:45;5.80;99.90
46309;DHT22;32037;50.820;6.494;2023-03-01T00:24:14;5.80;99.90
46309;DHT22;32037;50.820;6.494;2023-03-01T00:26:43;5.80;99.90
46309;DHT22;32037;50.820;6.494;2023-03-01T00:29:12;5.80;99.90
46309;DHT22;32037;50.820;6.494;2023-03-01T00:31:40;5.80;99.90
46309;DHT22;32037;50.820;6.494;2023-03-01T00:34:09;5.80;99.90
46309;DHT22;32037;50.820;6.494;2023-03-01T00:36:38;5.80;99.90
46309;DHT22;32037;50.820;6.494;2023-03-01T00:39:11;5.80;99.90
46309;DHT22;32037;50.820;6.494;2023-03-01T00:41:40;5.80;99.90
46309;DHT22;32037;50.820;6.494;2023-03-01T00:44:09;5.80;99.90
46309;DHT22;32037;50.820;6.494;2023-03-01T00:46:39;5.80;99.90
46309;DHT22;32037;50.820;6.494;2023-03-01T00:49:07;5.80;99.90
46309;DHT22;32037;50.820;6.494;2023-03-01T00:51:36;5.80;99.90
46309;DHT22;32037;50.820;6.494;2023-03-01T00:54:08;5.80;99.90
46309;DHT22;32037;50.820;6.494;2023-03-01T00:56:40;5.80;99.90
46309;DHT22;32037;50.820;6.494;2023-03-01T00:59:09;5.70;99.90
46309;DHT22;32037;50.820;6.494;2023-03-01T01:01:39;5.80;99.90
46309;DHT22;32037;50.820;6.494;2023-03-01T01:04:09;5.70;99.90
46309;DHT22;32037;50.820;6.494;2023-03-01T01:06:42;5.70;99.90
46309;DHT22;32037;50.820;6.494;2023-03-01T01:09:15;5.70;99.90
46309;DHT22;32037;50.820;6.494;2023-03-01T01:11:47;5.70;99.90
46309;DHT22;32037;50.820;6.494;2023-03-01T01:14:16;5.70;99.90
46309;DHT22;32037;50.820;6.494;2023-03-01T01:16:45;5.70;99.90
46309;DHT22;32037;50.820;6.494;2023-03-01T01:19:14;5.70;99.90
46309;DHT22;32037;50.820;6.494;2023-03-01T01:21:43;5.70;99.90
46309;DHT22;32037;50.820;6.494;2023-03-01T01:24:14;5.70;99.90
46309;DHT22;32037;50.820;6.494;2023-03-01T01:26:43;5.70;99.90
46309;DHT22;32037;50.820;6.494;2023-03-01T01:29:12;5.70;99.90
46309;DHT22;32037;50.820;6.494;2023-03-01T01:31:42;5.70;99.90
46309;DHT22;32037;50.820;6.494;2023-03-01T01:34:14;5.70;99.90
46309;DHT22;32037;50.820;6.494;2023-03-01T01:36:43;5.70;99.90
46309;DHT22;32037;50.820;6.494;2023-03-01T01:39:13;5.70;99.90
46309;DHT22;32037;50.820;6.494;2023-03-01T01:41:42;5.70;99.90
46309;DHT22;32037;50.820;6.494;2023-03-01T01:44:13;5.70;99.90
46309;DHT22;32037;50.820;6.494;2023-03-01T01:46:45;5.70;99.90
46309;DHT22;32037;50.820;6.494;2023-03-01T01:49:24;5.70;99.90
46309;DHT22;32037;50.820;6.494;2023-03-01T01:51:59;5.70;99.90
46309;DHT22;32037;50.820;6.494;2023-03-01T01:54:39;5.70;99.90
46309;DHT22;32037;50.820;6.494;2023-03-01T01:57:14;5.70;99.90
46309;DHT22;32037;50.820;6.494;2023-03-01T01:59:47;5.70;99.90
46309;DHT22;32037;50.820;6.494;2023-03-01T02:02:18;5.70;99.90
46309;DHT22;32037;50.820;6.494;2023-03-01T02:04:48;5.70;99.90
46309;DHT22;32037;50.820;6.494;2023-03-01T02:07:20;5.70;99.90
46309;DHT22;32037;50.820;6.494;2023-03-01T02:09:52;5.70;99.90
46309;DHT22;32037;50.820;6.494;2023-03-01T02:12:23;5.60;99.90
46309;DHT22;32037;50.820;6.494;2023-03-01T02:14:52;5.70;99.90
46309;DHT22;32037;50.820;6.494;2023-03-01T02:17:21;5.70;99.90
46309;DHT22;32037;50.820;6.494;2023-03-01T02:19:59;5.70;99.90
46309;DHT22;32037;50.820;6.494;2023-03-01T02:22:36;5.60;99.90
46309;DHT22;32037;50.820;6.494;2023-03-01T02:25:20;5.60;99.90
46309;DHT22;32037;50.820;6.494;2023-03-01T02:27:55;5.60;99.90
46309;DHT22;32037;50.820;6.494;2023-03-01T02:30:28;5.60;99.90
46309;DHT22;32037;50.820;6.494;2023-03-01T02:32:59;5.60;99.90
46309;DHT22;32037;50.820;6.494;2023-03-01T02:35:32;5.60;99.90
46309;DHT22;32037;50.820;6.494;2023-03-01T02:38:03;5.60;99.90
46309;DHT22;32037;50.820;6.494;2023-03-01T02:40:36;5.60;99.90
46309;DHT22;32037;50.820;6.494;2023-03-01T02:43:09;5.60;99.90
46309;DHT22;32037;50.820;6.494;2023-03-01T02:45:48;5.60;99.90
46309;DHT22;32037;50.820;6.494;2023-03-01T02:48:17;5.60;99.90
46309;DHT22;32037;50.820;6.494;2023-03-01T02:50:57;5.60;99.90
46309;DHT22;32037;50.820;6.494;2023-03-01T02:53:39;5.60;99.90
46309;DHT22;32037;50.820;6.494;2023-03-01T02:56:10;5.60;99.90
46309;DHT22;32037;50.820;6.494;2023-03-01T02:58:41;5.60;99.90
46309;DHT22;32037;50.820;6.494;2023-03-01T03:01:15;5.60;99.90
46309;DHT22;32037;50.820;6.494;2023-03-01T03:03:44;5.50;99.90
46309;DHT22;32037;50.820;6.494;2023-03-01T03:06:13;5.60;99.90
46309;DHT22;32037;50.820;6.494;2023-03-01T03:08:42;5.60;99.90
46309;DHT22;32037;50.820;6.494;2023-03-01T03:11:11;5.60;99.90
46309;DHT22;32037;50.820;6.494;2023-03-01T03:13:39;5.60;99.90
46309;DHT22;32037;50.820;6.494;2023-03-01T03:16:18;5.60;99.90
46309;DHT22;32037;50.820;6.494;2023-03-01T03:18:47;5.50;99.90
46309;DHT22;32037;50.820;6.494;2023-03-01T03:21:16;5.50;99.90
46309;DHT22;32037;50.820;6.494;2023-03-01T03:23:45;5.50;99.90
46309;DHT22;32037;50.820;6.494;2023-03-01T03:26:13;5.50;99.90
46309;DHT22;32037;50.820;6.494;2023-03-01T03:28:42;5.50;99.90
46309;DHT22;32037;50.820;6.494;2023-03-01T03:31:10;5.50;99.90
46309;DHT22;32037;50.820;6.494;2023-03-01T03:33:40;5.50;99.90
46309;DHT22;32037;50.820;6.494;2023-03-01T03:36:09;5.50;99.90
46309;DHT22;32037;50.820;6.494;2023-03-01T03:38:40;5.50;99.90
46309;DHT22;32037;50.820;6.494;2023-03-01T03:41:08;5.50;99.90
46309;DHT22;32037;50.820;6.494;2023-03-01T03:43:38;5.50;99.90
46309;DHT22;32037;50.820;6.494;2023-03-01T03:46:07;5.50;99.90
46309;DHT22;32037;50.820;6.494;2023-03-01T03:48:39;5.50;99.90
46309;DHT22;32037;50.820;6.494;2023-03-01T03:51:12;5.50;99.90
46309;DHT22;32037;50.820;6.494;2023-03-01T03:53:41;5.50;99.90
46309;DHT22;32037;50.820;6.494;2023-03-01T03:56:10;5.50;99.90
46309;DHT22;32037;50.820;6.494;2023-03-01T03:58:39;5.50;99.90
46309;DHT22;32037;50.820;6.494;2023-03-01T04:01:07;5.50;99.90
46309;DHT22;32037;50.820;6.494;2023-03-01T04:03:36;5.50;99.90
46309;DHT22;32037;50.820;6.494;2023-03-01T04:06:05;5.50;99.90
46309;DHT22;32037;50.820;6.494;2023-03-01T04:08:35;5.50;99.90
46309;DHT22;32037;50.820;6.494;2023-03-01T04:11:04;5.40;99.90
46309;DHT22;32037;50.820;6.494;2023-03-01T04:13:47;5.50;99.90
46309;DHT22;32037;50.820;6.494;2023-03-01T04:16:16;5.40;99.90
46309;DHT22;32037;50.820;6.494;2023-03-01T04:18:45;5.40;99.90
46309;DHT22;32037;50.820;6.494;2023-03-01T04:21:14;5.40;99.90
46309;DHT22;32037;50.820;6.494;2023-03-01T04:23:44;5.40;99.90
46309;DHT22;32037;50.820;6.494;2023-03-01T04:26:12;5.40;99.90
46309;DHT22;32037;50.820;6.494;2023-03-01T04:28:42;5.40;99.90
46309;DHT22;32037;50.820;6.494;2023-03-01T04:31:14;5.40;99.90
46309;DHT22;32037;50.820;6.494;2023-03-01T04:33:46;5.40;99.90
46309;DHT22;32037;50.820;6.494;2023-03-01T04:36:16;5.40;99.90
46309;DHT22;32037;50.820;6.494;2023-03-01T04:38:46;5.40;99.90
46309;DHT22;32037;50.820;6.494;2023-03-01T04:41:17;5.40;99.90
46309;DHT22;32037;50.820;6.494;2023-03-01T04:43:45;5.40;99.90
46309;DHT22;32037;50.820;6.494;2023-03-01T04:46:15;5.40;99.90
46309;DHT22;32037;50.820;6.494;2023-03-01T04:48:45;5.40;99.90
46309;DHT22;32037;50.820;6.494;2023-03-01T04:51:14;5.40;99.90
46309;DHT22;32037;50.820;6.494;2023-03-01T04:53:44;5.40;99.90
46309;DHT22;32037;50.820;6.494;2023-03-01T04:56:14;5.40;99.90
46309;DHT22;32037;50.820;6.494;2023-03-01T04:58:45;5.40;99.90
46309;DHT22;32037;50.820;6.494;2023-03-01T05:01:16;5.30;99.90
46309;DHT22;32037;50.820;6.494;2023-03-01T05:03:47;5.40;99.90
46309;DHT22;32037;50.820;6.494;2023-03-01T05:06:16;5.40;99.90
46309;DHT22;32037;50.820;6.494;2023-03-01T05:08:45;5.30;99.90
46309;DHT22;32037;50.820;6.494;2023-03-01T05:11:15;5.30;99.90
46309;DHT22;32037;50.820;6.494;2023-03-01T05:13:44;5.30;99.90
46309;DHT22;32037;50.820;6.494;2023-03-01T05:16:12;5.30;99.90
46309;DHT22;32037;50.820;6.494;2023-03-01T05:18:41;5.30;99.90
46309;DHT22;32037;50.820;6.494;2023-03-01T05:21:11;5.30;99.90
46309;DHT22;32037;50.820;6.494;2023-03-01T05:23:43;5.30;99.90
46309;DHT22;32037;50.820;6.494;2023-03-01T05:26:12;5.30;99.90
46309;DHT22;32037;50.820;6.494;2023-03-01T05:28:55;5.30;99.90
46309;DHT22;32037;50.820;6.494;2023-03-01T05:31:26;5.30;99.90
46309;DHT22;32037;50.820;6.494;2023-03-01T05:33:55;5.30;99.90
46309;DHT22;32037;50.820;6.494;2023-03-01T05:36:24;5.30;99.90
46309;DHT22;32037;50.820;6.494;2023-03-01T05:38:52;5.30;99.90
46309;DHT22;32037;50.820;6.494;2023-03-01T05:41:21;5.30;99.90
46309;DHT22;32037;50.820;6.494;2023-03-01T05:43:49;5.30;99.90
46309;DHT22;32037;50.820;6.494;2023-03-01T05:46:19;5.30;99.90
46309;DHT22;32037;50.820;6.494;2023-03-01T05:48:50;5.30;99.90
46309;DHT22;32037;50.820;6.494;2023-03-01T05:51:19;5.20;99.90
46309;DHT22;32037;50.820;6.494;2023-03-01T05:53:49;5.20;99.90
46309;DHT22;32037;50.820;6.494;2023-03-01T05:56:17;5.20;99.90
46309;DHT22;32037;50.820;6.494;2023-03-01T05:58:47;5.20;99.90
46309;DHT22;32037;50.820;6.494;2023-03-01T06:01:16;5.20;99.90
46309;DHT22;32037;50.820;6.494;2023-03-01T06:03:46;5.20;99.90
46309;DHT22;32037;50.820;6.494;2023-03-01T06:06:15;5.20;99.90
46309;DHT22;32037;50.820;6.494;2023-03-01T06:08:44;5.20;99.90
46309;DHT22;32037;50.820;6.494;2023-03-01T06:11:12;5.20;99.90
46309;DHT22;32037;50.820;6.494;2023-03-01T06:13:41;5.20;99.90
46309;DHT22;32037;50.820;6.494;2023-03-01T06:16:11;5.20;99.90
46309;DHT22;32037;50.820;6.494;2023-03-01T06:18:39;5.20;99.90
46309;DHT22;32037;50.820;6.494;2023-03-01T06:21:10;5.20;99.90
46309;DHT22;32037;50.820;6.494;2023-03-01T06:23:38;5.20;99.90
46309;DHT22;32037;50.820;6.494;2023-03-01T06:26:07;5.20;99.90
46309;DHT22;32037;50.820;6.494;2023-03-01T06:28:36;5.20;99.90
46309;DHT22;32037;50.820;6.494;2023-03-01T06:31:05;5.10;99.90
46309;DHT22;32037;50.820;6.494;2023-03-01T06:33:36;5.20;99.90
46309;DHT22;32037;50.820;6.494;2023-03-01T06:36:05;5.10;99.90
46309;DHT22;32037;50.820;6.494;2023-03-01T06:38:35;5.10;99.90
46309;DHT22;32037;50.820;6.494;2023-03-01T06:41:04;5.10;99.90
46309;DHT22;32037;50.820;6.494;2023-03-01T06:43:34;5.10;99.90
46309;DHT22;32037;50.820;6.494;2023-03-01T06:46:04;5.10;99.90
46309;DHT22;32037;50.820;6.494;2023-03-01T06:48:34;5.10;99.90
46309;DHT22;32037;50.820;6.494;2023-03-01T06:51:03;5.10;99.90
46309;DHT22;32037;50.820;6.494;2023-03-01T06:53:31;5.10;99.90
46309;DHT22;32037;50.820;6.494;2023-03-01T06:56:01;5.10;99.90
46309;DHT22;32037;50.820;6.494;2023-03-01T06:58:30;5.10;99.90
46309;DHT22;32037;50.820;6.494;2023-03-01T07:00:58;5.10;99.90
46309;DHT22;32037;50.820;6.494;2023-03-01T07:03:27;5.10;99.90
46309;DHT22;32037;50.820;6.494;2023-03-01T07:05:56;5.00;99.90
46309;DHT22;32037;50.820;6.494;2023-03-01T07:08:24;5.10;99.90
46309;DHT22;32037;50.820;6.494;2023-03-01T07:10:56;5.10;99.90
46309;DHT22;32037;50.820;6.494;2023-03-01T07:13:26;5.10;99.90
46309;DHT22;32037;50.820;6.494;2023-03-01T07:15:55;5.10;99.90
46309;DHT22;32037;50.820;6.494;2023-03-01T07:18:24;5.10;99.90
46309;DHT22;32037;50.820;6.494;2023-03-01T07:20:52;5.00;99.90
46309;DHT22;32037;50.820;6.494;2023-03-01T07:23:21;5.00;99.90
46309;DHT22;32037;50.820;6.494;2023-03-01T07:25:53;5.10;99.90
46309;DHT22;32037;50.820;6.494;2023-03-01T07:28:23;5.00;99.90
46309;DHT22;32037;50.820;6.494;2023-03-01T07:30:53;5.00;99.90
46309;DHT22;32037;50.820;6.494;2023-03-01T07:33:22;5.00;99.90
46309;DHT22;32037;50.820;6.494;2023-03-01T07:35:56;5.00;99.90
46309;DHT22;32037;50.820;6.494;2023-03-01T07:38:26;5.00;99.90
46309;DHT22;32037;50.820;6.494;2023-03-01T07:40:58;5.00;99.90
46309;DHT22;32037;50.820;6.494;2023-03-01T07:43:27;5.00;99.90
46309;DHT22;32037;50.820;6.494;2023-03-01T07:45:59;5.00;99.90
46309;DHT22;32037;50.820;6.494;2023-03-01T07:48:29;5.00;99.90
46309;DHT22;32037;50.820;6.494;2023-03-01T07:50:58;5.00;99.90
46309;DHT22;32037;50.820;6.494;2023-03-01T07:53:27;5.00;99.90
46309;DHT22;32037;50.820;6.494;2023-03-01T07:56:03;5.00;99.90
46309;DHT22;32037;50.820;6.494;2023-03-01T07:58:33;5.00;99.90
46309;DHT22;32037;50.820;6.494;2023-03-01T08:01:04;5.00;99.90
46309;DHT22;32037;50.820;6.494;2023-03-01T08:03:34;5.00;99.90
46309;DHT22;32037;50.820;6.494;2023-03-01T08:06:03;5.00;99.90
46309;DHT22;32037;50.820;6.494;2023-03-01T08:08:33;5.00;99.90
46309;DHT22;32037;50.820;6.494;2023-03-01T08:11:04;5.00;99.90
46309;DHT22;32037;50.820;6.494;2023-03-01T08:13:33;5.00;99.90
46309;DHT22;32037;50.820;6.494;2023-03-01T08:16:06;5.00;99.90
46309;DHT22;32037;50.820;6.494;2023-03-01T08:18:35;5.00;99.90
46309;DHT22;32037;50.820;6.494;2023-03-01T08:21:04;5.00;99.90
46309;DHT22;32037;50.820;6.494;2023-03-01T08:23:33;4.90;99.90
46309;DHT22;32037;50.820;6.494;2023-03-01T08:26:07;4.90;99.90
46309;DHT22;32037;50.820;6.494;2023-03-01T08:28:36;4.90;99.90
46309;DHT22;32037;50.820;6.494;2023-03-01T08:31:16;5.00;99.90
46309;DHT22;32037;50.820;6.494;2023-03-01T08:33:46;4.90;99.90
46309;DHT22;32037;50.820;6.494;2023-03-01T08:36:18;4.90;99.90
46309;DHT22;32037;50.820;6.494;2023-03-01T08:38:52;4.90;99.90
46309;DHT22;32037;50.820;6.494;2023-03-01T08:41:20;4.90;99.90
46309;DHT22;32037;50.820;6.494;2023-03-01T08:43:49;5.00;99.90
46309;DHT22;32037;50.820;6.494;2023-03-01T08:46:20;5.00;99.90
46309;DHT22;32037;50.820;6.494;2023-03-01T08:48:48;5.00;99.90
46309;DHT22;32037;50.820;6.494;2023-03-01T08:51:18;5.00;99.90
46309;DHT22;32037;50.820;6.494;2023-03-01T08:53:47;5.00;99.90
46309;DHT22;32037;50.820;6.494;2023-03-01T08:56:17;5.00;99.90
46309;DHT22;32037;50.820;6.494;2023-03-01T08:58:48;5.00;99.90
46309;DHT22;32037;50.820;6.494;2023-03-01T09:01:18;5.00;99.90
46309;DHT22;32037;50.820;6.494;2023-03-01T09:03:48;5.00;99.90
46309;DHT22;32037;50.820;6.494;2023-03-01T09:06:17;5.00;99.90
46309;DHT22;32037;50.820;6.494;2023-03-01T09:08:47;5.00;99.90
46309;DHT22;32037;50.820;6.494;2023-03-01T09:11:19;5.00;99.90
46309;DHT22;32037;50.820;6.494;2023-03-01T09:13:49;5.00;99.90
46309;DHT22;32037;50.820;6.494;2023-03-01T09:16:20;5.00;99.90
46309;DHT22;32037;50.820;6.494;2023-03-01T09:18:51;5.00;99.90
46309;DHT22;32037;50.820;6.494;2023-03-01T09:21:21;5.00;99.90
46309;DHT22;32037;50.820;6.494;2023-03-01T09:24:06;5.00;99.90
46309;DHT22;32037;50.820;6.494;2023-03-01T09:26:35;5.00;99.90
46309;DHT22;32037;50.820;6.494;2023-03-01T09:29:03;5.00;99.90
46309;DHT22;32037;50.820;6.494;2023-03-01T09:31:31;5.00;99.90
46309;DHT22;32037;50.820;6.494;2023-03-01T09:34:01;5.00;99.90
46309;DHT22;32037;50.820;6.494;2023-03-01T09:36:30;5.00;99.90
46309;DHT22;32037;50.820;6.494;2023-03-01T09:38:59;5.00;99.90
46309;DHT22;32037;50.820;6.494;2023-03-01T09:41:40;5.00;99.90
46309;DHT22;32037;50.820;6.494;2023-03-01T09:44:18;5.00;99.90
46309;DHT22;32037;50.820;6.494;2023-03-01T09:46:49;5.00;99.90
46309;DHT22;32037;50.820;6.494;2023-03-01T09:49:21;5.00;99.90
46309;DHT22;32037;50.820;6.494;2023-03-01T09:51:56;5.00;99.90
46309;DHT22;32037;50.820;6.494;2023-03-01T09:54:25;5.00;99.90
46309;DHT22;32037;50.820;6.494;2023-03-01T09:57:03;5.00;99.90
46309;DHT22;32037;50.820;6.494;2023-03-01T09:59:42;5.00;99.90
46309;DHT22;32037;50.820;6.494;2023-03-01T10:02:23;5.00;99.90
46309;DHT22;32037;50.820;6.494;2023-03-01T10:04:57;5.00;99.90
46309;DHT22;32037;50.820;6.494;2023-03-01T10:07:39;5.00;99.90
46309;DHT22;32037;50.820;6.494;2023-03-01T10:10:21;5.00;99.90
46309;DHT22;32037;50.820;6.494;2023-03-01T10:12:52;5.00;99.90
46309;DHT22;32037;50.820;6.494;2023-03-01T10:15:25;5.00;99.90
46309;DHT22;32037;50.820;6.494;2023-03-01T10:17:58;5.00;99.90
46309;DHT22;32037;50.820;6.494;2023-03-01T10:20:42;5.00;99.90
46309;DHT22;32037;50.820;6.494;2023-03-01T10:23:11;5.00;99.90
46309;DHT22;32037;50.820;6.494;2023-03-01T10:25:47;5.00;99.90
46309;DHT22;32037;50.820;6.494;2023-03-01T10:28:25;5.00;99.90
46309;DHT22;32037;50.820;6.494;2023-03-01T10:30:54;5.00;99.90
46309;DHT22;32037;50.820;6.494;2023-03-01T10:33:24;5.00;99.90
46309;DHT22;32037;50.820;6.494;2023-03-01T10:35:55;5.00;99.90
46309;DHT22;32037;50.820;6.494;2023-03-01T10:38:25;5.00;99.90
46309;DHT22;32037;50.820;6.494;2023-03-01T10:40:55;5.00;99.90
46309;DHT22;32037;50.820;6.494;2023-03-01T10:43:26;5.00;99.90
46309;DHT22;32037;50.820;6.494;2023-03-01T10:45:55;5.00;99.90
46309;DHT22;32037;50.820;6.494;2023-03-01T10:48:26;5.00;99.90
46309;DHT22;32037;50.820;6.494;2023-03-01T10:51:07;5.00;99.90
46309;DHT22;32037;50.820;6.494;2023-03-01T10:53:37;4.90;99.90
46309;DHT22;32037;50.820;6.494;2023-03-01T10:56:08;4.90;99.90
46309;DHT22;32037;50.820;6.494;2023-03-01T10:58:37;4.90;99.90
46309;DHT22;32037;50.820;6.494;2023-03-01T11:01:24;4.90;99.90
46309;DHT22;32037;50.820;6.494;2023-03-01T11:04:09;4.90;99.90
46309;DHT22;32037;50.820;6.494;2023-03-01T11:06:40;4.90;99.90
46309;DHT22;32037;50.820;6.494;2023-03-01T11:09:17;4.90;99.90
46309;DHT22;32037;50.820;6.494;2023-03-01T11:11:46;4.90;99.90
46309;DHT22;32037;50.820;6.494;2023-03-01T11:14:22;4.90;99.90
46309;DHT22;32037;50.820;6.494;2023-03-01T11:17:04;4.90;99.90
46309;DHT22;32037;50.820;6.494;2023-03-01T11:19:36;4.90;99.90
46309;DHT22;32037;50.820;6.494;2023-03-01T11:22:12;4.90;99.90
46309;DHT22;32037;50.820;6.494;2023-03-01T11:24:45;4.90;99.90
46309;DHT22;32037;50.820;6.494;2023-03-01T11:27:32;4.90;99.90
46309;DHT22;32037;50.820;6.494;2023-03-01T11:30:05;4.90;99.90
46309;DHT22;32037;50.820;6.494;2023-03-01T11:32:40;4.90;99.90
46309;DHT22;32037;50.820;6.494;2023-03-01T11:35:14;4.90;99.90
46309;DHT22;32037;50.820;6.494;2023-03-01T11:37:58;4.90;99.90
46309;DHT22;32037;50.820;6.494;2023-03-01T11:40:34;4.90;99.90
46309;DHT22;32037;50.820;6.494;2023-03-01T11:43:09;4.90;99.90
46309;DHT22;32037;50.820;6.494;2023-03-01T11:45:47;4.90;99.90
46309;DHT22;32037;50.820;6.494;2023-03-01T11:48:34;4.90;99.90
46309;DHT22;32037;50.820;6.494;2023-03-01T11:51:24;4.90;99.90
46309;DHT22;32037;50.820;6.494;2023-03-01T11:54:09;4.90;99.90
46309;DHT22;32037;50.820;6.494;2023-03-01T11:56:45;4.90;99.90
46309;DHT22;32037;50.820;6.494;2023-03-01T11:59:41;4.90;99.90
46309;DHT22;32037;50.820;6.494;2023-03-01T12:02:40;4.90;99.90
46309;DHT22;32037;50.820;6.494;2023-03-01T12:05:28;4.90;99.90
46309;DHT22;32037;50.820;6.494;2023-03-01T12:08:08;4.90;99.90
46309;DHT22;32037;50.820;6.494;2023-03-01T12:10:46;4.90;99.90
46309;DHT22;32037;50.820;6.494;2023-03-01T12:13:45;4.90;99.90
46309;DHT22;32037;50.820;6.494;2023-03-01T12:16:28;4.90;99.90
46309;DHT22;32037;50.820;6.494;2023-03-01T12:19:20;4.90;99.90
46309;DHT22;32037;50.820;6.494;2023-03-01T12:22:04;4.90;99.90
46309;DHT22;32037;50.820;6.494;2023-03-01T12:24:46;4.90;99.90
46309;DHT22;32037;50.820;6.494;2023-03-01T12:27:38;4.90;99.90
46309;DHT22;32037;50.820;6.494;2023-03-01T12:30:25;4.90;99.90
46309;DHT22;32037;50.820;6.494;2023-03-01T12:33:08;4.90;99.90
46309;DHT22;32037;50.820;6.494;2023-03-01T12:35:54;4.90;99.90
46309;DHT22;32037;50.820;6.494;2023-03-01T12:38:41;4.90;99.90
46309;DHT22;32037;50.820;6.494;2023-03-01T12:41:34;4.90;99.90
46309;DHT22;32037;50.820;6.494;2023-03-01T12:44:15;4.90;99.90
46309;DHT22;32037;50.820;6.494;2023-03-01T12:47:09;4.90;99.90
46309;DHT22;32037;50.820;6.494;2023-03-01T12:49:43;4.90;99.90
46309;DHT22;32037;50.820;6.494;2023-03-01T12:52:16;4.90;99.90
46309;DHT22;32037;50.820;6.494;2023-03-01T12:54:48;4.90;99.90
46309;DHT22;32037;50.820;6.494;2023-03-01T12:57:24;4.90;99.90
46309;DHT22;32037;50.820;6.494;2023-03-01T13:00:02;4.90;99.90
46309;DHT22;32037;50.820;6.494;2023-03-01T13:02:41;4.90;99.90
46309;DHT22;32037;50.820;6.494;2023-03-01T13:05:26;4.90;99.90
46309;DHT22;32037;50.820;6.494;2023-03-01T13:08:04;4.90;99.90
46309;DHT22;32037;50.820;6.494;2023-03-01T13:10:39;4.90;99.90
46309;DHT22;32037;50.820;6.494;2023-03-01T13:13:14;4.90;99.90
46309;DHT22;32037;50.820;6.494;2023-03-01T13:15:48;4.90;99.90
46309;DHT22;32037;50.820;6.494;2023-03-01T13:18:29;4.90;99.90
46309;DHT22;32037;50.820;6.494;2023-03-01T13:20:59;5.00;99.90
46309;DHT22;32037;50.820;6.494;2023-03-01T13:23:31;5.00;99.90
46309;DHT22;32037;50.820;6.494;2023-03-01T13:26:12;5.00;99.90
46309;DHT22;32037;50.820;6.494;2023-03-01T13:28:47;5.00;99.90
46309;DHT22;32037;50.820;6.494;2023-03-01T13:34:52;5.00;99.90
46309;DHT22;32037;50.820;6.494;2023-03-01T13:37:27;5.00;99.90
46309;DHT22;32037;50.820;6.494;2023-03-01T13:40:02;5.00;99.90
46309;DHT22;32037;50.820;6.494;2023-03-01T13:42:42;5.00;99.90
46309;DHT22;32037;50.820;6.494;2023-03-01T13:45:36;5.00;99.90
46309;DHT22;32037;50.820;6.494;2023-03-01T13:48:11;5.00;99.90
46309;DHT22;32037;50.820;6.494;2023-03-01T13:50:47;5.00;99.90
46309;DHT22;32037;50.820;6.494;2023-03-01T13:53:18;5.00;99.90
46309;DHT22;32037;50.820;6.494;2023-03-01T13:55:49;5.00;99.90
46309;DHT22;32037;50.820;6.494;2023-03-01T13:58:23;5.00;99.90
46309;DHT22;32037;50.820;6.494;2023-03-01T14:00:57;5.00;99.90
46309;DHT22;32037;50.820;6.494;2023-03-01T14:03:27;5.00;99.90
46309;DHT22;32037;50.820;6.494;2023-03-01T14:06:05;5.00;99.90
46309;DHT22;32037;50.820;6.494;2023-03-01T14:08:44;5.00;99.90
46309;DHT22;32037;50.820;6.494;2023-03-01T14:11:31;5.00;99.90
46309;DHT22;32037;50.820;6.494;2023-03-01T14:14:35;5.00;99.90
46309;DHT22;32037;50.820;6.494;2023-03-01T14:20:15;5.00;99.90
46309;DHT22;32037;50.820;6.494;2023-03-01T14:22:46;5.00;99.90
46309;DHT22;32037;50.820;6.494;2023-03-01T14:25:21;5.10;99.90
46309;DHT22;32037;50.820;6.494;2023-03-01T14:28:00;5.00;99.90
46309;DHT22;32037;50.820;6.494;2023-03-01T14:30:35;5.10;99.90
46309;DHT22;32037;50.820;6.494;2023-03-01T14:33:18;5.10;99.90
46309;DHT22;32037;50.820;6.494;2023-03-01T14:35:54;5.10;99.90
46309;DHT22;32037;50.820;6.494;2023-03-01T14:38:29;5.00;99.90
46309;DHT22;32037;50.820;6.494;2023-03-01T14:41:03;5.10;99.90
46309;DHT22;32037;50.820;6.494;2023-03-01T14:43:33;5.10;99.90
46309;DHT22;32037;50.820;6.494;2023-03-01T14:46:02;5.10;99.90
46309;DHT22;32037;50.820;6.494;2023-03-01T14:48:31;5.10;99.90
46309;DHT22;32037;50.820;6.494;2023-03-01T14:51:00;5.10;99.90
46309;DHT22;32037;50.820;6.494;2023-03-01T14:53:30;5.10;99.90
46309;DHT22;32037;50.820;6.494;2023-03-01T14:56:16;5.10;99.90
46309;DHT22;32037;50.820;6.494;2023-03-01T14:58:46;5.10;99.90
46309;DHT22;32037;50.820;6.494;2023-03-01T15:01:17;5.10;99.90
46309;DHT22;32037;50.820;6.494;2023-03-01T15:03:47;5.10;99.90
46309;DHT22;32037;50.820;6.494;2023-03-01T15:06:19;5.10;99.90
46309;DHT22;32037;50.820;6.494;2023-03-01T15:08:51;5.10;99.90
46309;DHT22;32037;50.820;6.494;2023-03-01T15:11:22;5.10;99.90
46309;DHT22;32037;50.820;6.494;2023-03-01T15:13:52;5.10;99.90
46309;DHT22;32037;50.820;6.494;2023-03-01T15:16:23;5.10;99.90
46309;DHT22;32037;50.820;6.494;2023-03-01T15:18:54;5.10;99.90
46309;DHT22;32037;50.820;6.494;2023-03-01T15:21:26;5.10;99.90
46309;DHT22;32037;50.820;6.494;2023-03-01T15:24:00;5.10;99.90
46309;DHT22;32037;50.820;6.494;2023-03-01T15:26:34;5.10;99.90
46309;DHT22;32037;50.820;6.494;2023-03-01T15:29:03;5.10;99.90
46309;DHT22;32037;50.820;6.494;2023-03-01T15:31:34;5.10;99.90
46309;DHT22;32037;50.820;6.494;2023-03-01T15:34:22;5.10;99.90
46309;DHT22;32037;50.820;6.494;2023-03-01T15:36:51;5.10;99.90
46309;DHT22;32037;50.820;6.494;2023-03-01T15:39:39;5.10;99.90
46309;DHT22;32037;50.820;6.494;2023-03-01T15:42:12;5.20;99.90
46309;DHT22;32037;50.820;6.494;2023-03-01T15:44:41;5.20;99.90
46309;DHT22;32037;50.820;6.494;2023-03-01T15:47:29;5.20;99.90
46309;DHT22;32037;50.820;6.494;2023-03-01T15:50:00;5.20;99.90
46309;DHT22;32037;50.820;6.494;2023-03-01T15:52:33;5.20;99.90
46309;DHT22;32037;50.820;6.494;2023-03-01T15:55:19;5.20;99.90
46309;DHT22;32037;50.820;6.494;2023-03-01T15:57:48;5.20;99.90
46309;DHT22;32037;50.820;6.494;2023-03-01T16:00:18;5.20;99.90
46309;DHT22;32037;50.820;6.494;2023-03-01T16:02:46;5.20;99.90
46309;DHT22;32037;50.820;6.494;2023-03-01T16:05:18;5.20;99.90
46309;DHT22;32037;50.820;6.494;2023-03-01T16:07:47;5.20;99.90
46309;DHT22;32037;50.820;6.494;2023-03-01T16:10:18;5.20;99.90
46309;DHT22;32037;50.820;6.494;2023-03-01T16:12:46;5.20;99.90
46309;DHT22;32037;50.820;6.494;2023-03-01T16:15:19;5.20;99.90
46309;DHT22;32037;50.820;6.494;2023-03-01T16:17:48;5.20;99.90
46309;DHT22;32037;50.820;6.494;2023-03-01T16:20:21;5.20;99.90
46309;DHT22;32037;50.820;6.494;2023-03-01T16:22:58;5.20;99.90
46309;DHT22;32037;50.820;6.494;2023-03-01T16:25:29;5.20;99.90
46309;DHT22;32037;50.820;6.494;2023-03-01T16:27:57;5.20;99.90